Terminal Aerodrome Forecast
Issued by NWS Charleston, WV

Current Version | Previous Version | Graphics & Text | Print | Product List | Glossary On
Versions: 1 2 3 4 5 6 7 8 9 10 11 12 13 14 15 16 17 18 19 20 21 22
000
FTUS41 KRLX 230235 AAA
TAFPKB
TAF AMD
KPKB 230235Z 2303/2324 VRB03KT P6SM FEW200
     FM230900 00000KT 4SM BR SCT001 SCT200
     FM231300 VRB03KT P6SM SCT200
     FM231700 28004KT P6SM FEW050=

USA.gov is the U.S. government's official web portal to all federal, state and local government web resources and services.